createdAt,value
2019-05-25T00:02:10.331Z,17.50
2019-05-25T00:07:32.581Z,17.60
2019-05-25T00:13:03.523Z,17.60
2019-05-25T00:18:33.541Z,17.50
2019-05-25T00:26:53.070Z,17.20
2019-05-25T00:49:03.040Z,17.00
2019-05-25T00:51:43.686Z,17.00
2019-05-25T00:59:59.910Z,16.80
2019-05-25T01:05:30.337Z,16.80
2019-05-25T01:08:10.585Z,16.80
2019-05-25T01:10:51.245Z,16.80
2019-05-25T01:13:31.770Z,16.80
2019-05-25T01:16:12.451Z,16.70
2019-05-25T01:18:54.039Z,16.70
2019-05-25T01:21:33.295Z,16.70
2019-05-25T01:24:21.139Z,16.60
2019-05-25T01:27:08.983Z,16.50
2019-05-25T01:29:49.464Z,16.50
2019-05-25T01:32:30.020Z,16.50
2019-05-25T01:35:10.329Z,16.50
2019-05-25T01:37:50.985Z,16.50
2019-05-25T01:40:20.198Z,16.50
2019-05-25T01:42:49.130Z,16.60
2019-05-25T01:45:17.937Z,16.60
2019-05-25T01:47:47.048Z,16.50
2019-05-25T01:50:16.151Z,16.60
2019-05-25T01:52:45.239Z,16.60
2019-05-25T01:55:13.773Z,16.50
2019-05-25T01:57:42.670Z,16.50
2019-05-25T02:00:11.431Z,16.50
2019-05-25T02:02:40.030Z,16.40
2019-05-25T02:05:08.634Z,16.30
2019-05-25T02:07:37.200Z,16.30
2019-05-25T02:10:06.072Z,16.30
2019-05-25T02:12:34.678Z,16.30
2019-05-25T02:15:03.497Z,16.30
2019-05-25T02:17:32.355Z,16.30
2019-05-25T02:20:01.505Z,16.30
2019-05-25T02:22:30.035Z,16.30
2019-05-25T02:24:58.637Z,16.30
2019-05-25T02:27:29.334Z,16.30
2019-05-25T02:29:57.972Z,16.30
2019-05-25T02:32:27.195Z,16.20
2019-05-25T02:34:55.727Z,16.30
2019-05-25T02:37:24.308Z,16.20
2019-05-25T02:39:52.818Z,16.20
2019-05-25T02:42:21.903Z,16.20
2019-05-25T02:44:51.335Z,16.20
2019-05-25T02:47:20.223Z,16.10
2019-05-25T02:49:49.323Z,16.20
2019-05-25T02:52:18.426Z,16.10
2019-05-25T02:54:47.278Z,16.10
2019-05-25T02:57:16.099Z,16.10
2019-05-25T02:59:45.298Z,16.10
2019-05-25T03:02:13.831Z,16.10
2019-05-25T03:04:42.425Z,16.00
2019-05-25T03:07:11.416Z,16.00
2019-05-25T03:09:40.662Z,15.90
2019-05-25T03:12:09.195Z,15.90
2019-05-25T03:14:37.794Z,15.80
2019-05-25T03:17:06.712Z,15.70
2019-05-25T03:19:35.267Z,15.70
2019-05-25T03:22:03.840Z,15.70
2019-05-25T03:24:32.431Z,15.70
2019-05-25T03:27:00.998Z,15.70
2019-05-25T03:29:29.843Z,15.70
2019-05-25T03:31:58.634Z,15.60
2019-05-25T03:34:27.179Z,15.60
2019-05-25T03:36:55.863Z,15.60
2019-05-25T03:39:24.542Z,15.50
2019-05-25T03:41:54.003Z,15.50
2019-05-25T03:44:22.562Z,15.50
2019-05-25T03:46:51.775Z,15.50
2019-05-25T03:49:20.626Z,15.50
2019-05-25T03:51:49.275Z,15.40
2019-05-25T03:54:18.203Z,15.50
2019-05-25T03:56:46.781Z,15.50
2019-05-25T03:59:15.354Z,15.50
2019-05-25T04:01:44.916Z,15.50
2019-05-25T04:04:13.442Z,15.50
2019-05-25T04:06:42.039Z,15.40
2019-05-25T04:09:10.994Z,15.50
2019-05-25T04:11:40.478Z,15.50
2019-05-25T04:14:09.264Z,15.60
2019-05-25T04:16:38.158Z,15.60
2019-05-25T04:19:07.014Z,15.60
2019-05-25T04:21:35.614Z,15.60
2019-05-25T04:24:04.550Z,15.60
2019-05-25T04:26:33.166Z,15.60
2019-05-25T04:29:02.142Z,15.70
2019-05-25T04:31:30.760Z,15.70
2019-05-25T04:33:59.320Z,15.70
2019-05-25T04:36:27.906Z,15.70
2019-05-25T04:38:56.554Z,15.80
2019-05-25T04:41:25.078Z,15.80
2019-05-25T04:43:53.907Z,15.90
2019-05-25T04:46:22.461Z,15.80
2019-05-25T04:48:51.069Z,15.90
2019-05-25T04:51:19.723Z,15.90
2019-05-25T04:53:48.531Z,15.90
2019-05-25T04:56:17.424Z,15.80
2019-05-25T04:58:46.641Z,15.90
2019-05-25T05:01:15.443Z,15.80
2019-05-25T05:03:44.406Z,15.90
2019-05-25T05:06:13.631Z,15.80
2019-05-25T05:08:42.174Z,15.90
2019-05-25T05:11:10.751Z,15.90
2019-05-25T05:13:39.339Z,15.90
2019-05-25T05:16:08.311Z,15.80
2019-05-25T05:18:37.375Z,15.80
2019-05-25T05:21:06.007Z,15.80
2019-05-25T05:23:34.942Z,15.80
2019-05-25T05:26:03.487Z,15.80
2019-05-25T05:28:32.126Z,15.80
2019-05-25T05:31:00.931Z,15.80
2019-05-25T05:33:30.003Z,15.70
2019-05-25T05:35:59.326Z,15.70
2019-05-25T05:38:28.331Z,15.70
2019-05-25T05:40:56.847Z,15.70
2019-05-25T05:43:25.418Z,15.70
2019-05-25T05:45:53.986Z,15.80
2019-05-25T05:48:23.655Z,15.80
2019-05-25T05:50:52.503Z,15.90
2019-05-25T05:53:21.110Z,15.90
2019-05-25T05:55:49.754Z,15.90
2019-05-25T05:58:18.612Z,16.00
2019-05-25T06:00:47.286Z,16.10
2019-05-25T06:03:15.863Z,16.10
2019-05-25T06:05:44.551Z,16.10
2019-05-25T06:08:13.455Z,16.10
2019-05-25T06:10:41.978Z,16.20
2019-05-25T06:13:10.961Z,16.10
2019-05-25T06:15:39.940Z,16.20
2019-05-25T06:18:08.455Z,16.20
2019-05-25T06:20:37.663Z,16.30
2019-05-25T06:23:08.649Z,16.40
2019-05-25T06:25:36.910Z,16.40
2019-05-25T06:28:05.775Z,16.60
2019-05-25T06:30:34.355Z,16.60
2019-05-25T06:33:03.222Z,16.70
2019-05-25T06:35:31.806Z,16.70
2019-05-25T06:38:00.730Z,16.70
2019-05-25T06:40:29.751Z,16.80
2019-05-25T06:42:58.948Z,16.80
2019-05-25T06:45:27.834Z,16.90
2019-05-25T06:47:56.670Z,16.90
2019-05-25T06:50:25.515Z,16.90
2019-05-25T06:52:57.716Z,16.90
2019-05-25T06:55:24.375Z,16.90
2019-05-25T06:57:52.966Z,17.00
2019-05-25T07:00:21.810Z,17.00
2019-05-25T07:02:50.339Z,17.00
2019-05-25T07:05:18.930Z,17.00
2019-05-25T07:07:47.567Z,17.10
2019-05-25T07:10:16.255Z,17.10
2019-05-25T07:12:44.787Z,17.10
2019-05-25T07:15:14.895Z,17.20
2019-05-25T07:17:44.132Z,17.20
2019-05-25T07:20:12.929Z,17.30
2019-05-25T07:22:41.471Z,17.40
2019-05-25T07:25:10.614Z,17.40
2019-05-25T07:27:39.150Z,17.40
2019-05-25T07:30:08.409Z,17.40
2019-05-25T07:32:36.971Z,17.40
2019-05-25T07:35:05.559Z,17.40
2019-05-25T07:37:34.763Z,17.50
2019-05-25T07:40:22.604Z,17.60
2019-05-25T07:43:10.694Z,17.70
2019-05-25T07:45:58.775Z,17.80
2019-05-25T07:48:50.250Z,17.90
2019-05-25T07:51:37.034Z,18.00
2019-05-25T07:54:24.896Z,18.00
2019-05-25T07:57:12.727Z,18.10
2019-05-25T08:00:00.823Z,18.20
2019-05-25T08:02:48.931Z,18.30
2019-05-25T08:05:36.783Z,18.40
2019-05-25T08:08:24.847Z,18.40
2019-05-25T08:11:13.242Z,18.40
2019-05-25T08:14:01.080Z,18.40
2019-05-25T08:16:48.936Z,18.60
2019-05-25T08:19:37.029Z,18.70
2019-05-25T08:22:24.867Z,18.90
2019-05-25T08:25:12.711Z,19.10
2019-05-25T08:28:00.787Z,19.20
2019-05-25T08:30:41.038Z,19.40
2019-05-25T08:33:21.755Z,19.50
2019-05-25T08:36:02.467Z,19.70
2019-05-25T08:41:32.651Z,20.00
2019-05-25T08:44:12.996Z,20.00
2019-05-25T08:46:55.486Z,20.00
2019-05-25T08:49:35.942Z,20.00
2019-05-25T08:52:16.415Z,20.00
2019-05-25T08:54:57.248Z,20.00
2019-05-25T08:57:38.354Z,20.00
2019-05-25T09:00:19.016Z,20.10
2019-05-25T09:02:59.596Z,20.20
2019-05-25T09:05:40.530Z,20.30
2019-05-25T09:08:21.651Z,20.30
2019-05-25T09:11:02.055Z,20.30
2019-05-25T09:13:42.511Z,20.20
2019-05-25T09:16:23.535Z,20.20
2019-05-25T09:19:03.899Z,20.30
2019-05-25T09:22:00.999Z,20.50
2019-05-25T09:24:27.300Z,20.70
2019-05-25T09:27:08.837Z,20.80
2019-05-25T09:29:49.535Z,20.90
2019-05-25T09:32:31.033Z,21.00
2019-05-25T09:35:12.669Z,21.20
2019-05-25T09:37:54.022Z,21.40
2019-05-25T09:40:35.210Z,21.50
2019-05-25T09:45:57.911Z,21.40
2019-05-25T09:48:38.969Z,21.50
2019-05-25T09:51:20.875Z,21.70
2019-05-25T09:56:46.315Z,22.00
2019-05-25T09:59:27.518Z,22.10
2019-05-25T10:02:11.866Z,22.10
2019-05-25T10:07:41.856Z,22.30
2019-05-25T10:13:04.939Z,22.60
2019-05-25T10:40:53.989Z,23.80
2019-05-25T10:43:34.771Z,24.10
2019-05-25T10:46:15.846Z,24.30
2019-05-25T10:48:56.659Z,24.30
2019-05-25T10:51:37.203Z,24.40
2019-05-25T10:54:17.823Z,24.60
2019-05-25T10:56:58.235Z,24.80
2019-05-25T10:59:51.839Z,25.10
2019-05-25T11:02:22.075Z,25.40
2019-05-25T11:05:03.029Z,25.60
2019-05-25T11:07:43.513Z,25.80
2019-05-25T11:10:24.371Z,25.80
2019-05-25T11:13:05.296Z,25.80
2019-05-25T11:15:45.811Z,26.00
2019-05-25T11:18:26.097Z,26.10
2019-05-25T11:21:06.735Z,26.40
2019-05-25T11:23:47.410Z,26.60
2019-05-25T11:26:28.203Z,26.80
2019-05-25T11:29:09.239Z,26.90
2019-05-25T11:31:57.216Z,27.10
2019-05-25T11:34:38.600Z,26.80
2019-05-25T11:37:26.966Z,26.40
2019-05-25T11:43:21.827Z,25.80
2019-05-25T11:46:09.939Z,26.10
2019-05-25T11:48:58.012Z,26.60
2019-05-25T11:51:46.091Z,27.10
2019-05-25T11:54:33.942Z,27.50
2019-05-25T11:57:21.792Z,27.90
2019-05-25T12:00:23.711Z,28.30
2019-05-25T12:02:59.455Z,28.20
2019-05-25T12:05:47.286Z,28.10
2019-05-25T12:08:42.678Z,28.00
2019-05-25T12:11:30.520Z,27.40
2019-05-25T12:14:18.359Z,27.10
2019-05-25T12:17:06.195Z,27.30
2019-05-25T12:19:54.042Z,27.50
2019-05-25T12:22:42.134Z,27.50
2019-05-25T12:25:30.474Z,27.90
2019-05-25T12:28:18.840Z,28.10
2019-05-25T12:31:07.175Z,27.90
2019-05-25T12:33:55.010Z,28.00
2019-05-25T12:36:42.858Z,28.50
2019-05-25T12:39:30.694Z,28.70
2019-05-25T12:42:18.543Z,28.80
2019-05-25T12:45:06.690Z,29.00
2019-05-25T12:51:01.611Z,29.60
2019-05-25T12:53:49.447Z,29.30
2019-05-25T12:56:37.332Z,29.20
2019-05-25T12:59:25.204Z,28.90
2019-05-25T13:02:13.047Z,29.00
2019-05-25T13:05:00.899Z,29.30
2019-05-25T13:07:48.756Z,29.40
2019-05-25T13:10:36.604Z,29.30
2019-05-25T13:13:16.985Z,29.40
2019-05-25T13:15:57.671Z,29.40
2019-05-25T13:18:38.500Z,29.30
2019-05-25T13:21:19.091Z,29.40
2019-05-25T13:23:59.811Z,29.50
2019-05-25T13:26:40.619Z,29.60
2019-05-25T13:29:21.395Z,29.70
2019-05-25T13:32:02.437Z,29.90
2019-05-25T13:37:32.295Z,29.70
2019-05-25T13:40:12.990Z,29.90
2019-05-25T13:42:54.309Z,30.10
2019-05-25T13:45:34.812Z,30.10
2019-05-25T13:48:15.448Z,30.10
2019-05-25T13:50:57.174Z,30.00
2019-05-25T13:53:37.531Z,30.00
2019-05-25T13:56:18.176Z,30.10
2019-05-25T13:58:58.632Z,30.00
2019-05-25T14:01:39.347Z,30.00
2019-05-25T14:04:20.803Z,30.00
2019-05-25T14:07:01.175Z,30.30
2019-05-25T14:09:41.719Z,30.50
2019-05-25T14:12:22.579Z,30.50
2019-05-25T14:15:03.289Z,30.40
2019-05-25T14:17:44.046Z,30.20
2019-05-25T14:20:24.508Z,30.40
2019-05-25T14:23:05.061Z,30.50
2019-05-25T14:25:45.755Z,30.60
2019-05-25T14:28:26.270Z,30.60
2019-05-25T14:31:06.691Z,30.30
2019-05-25T14:33:47.518Z,30.40
2019-05-25T14:36:26.475Z,30.20
2019-05-25T14:39:14.796Z,30.20
2019-05-25T14:45:09.669Z,29.90
2019-05-25T14:47:57.743Z,29.60
2019-05-25T14:50:45.822Z,29.30
2019-05-25T14:53:33.908Z,29.20
2019-05-25T14:56:21.822Z,29.40
2019-05-25T14:59:09.919Z,29.20
2019-05-25T15:02:02.370Z,28.50
2019-05-25T15:04:47.567Z,28.00
2019-05-25T15:07:35.399Z,28.20
2019-05-25T15:10:23.251Z,28.40
2019-05-25T15:13:04.247Z,28.60
2019-05-25T15:15:45.004Z,28.60
2019-05-25T15:21:11.851Z,28.80
2019-05-25T15:26:40.175Z,28.80
2019-05-25T15:29:22.324Z,28.40
2019-05-25T15:34:49.331Z,28.10
2019-05-25T15:37:30.058Z,28.20
2019-05-25T15:40:11.687Z,28.00
2019-05-25T15:42:52.698Z,28.00
2019-05-25T15:45:32.954Z,27.80
2019-05-25T15:48:13.853Z,27.10
2019-05-25T15:50:54.555Z,26.30
2019-05-25T15:53:35.415Z,25.60
2019-05-25T15:56:16.289Z,25.40
2019-05-25T15:58:57.073Z,25.40
2019-05-25T16:01:37.996Z,25.40
2019-05-25T16:04:18.317Z,25.50
2019-05-25T16:06:59.075Z,25.40
2019-05-25T16:09:40.131Z,25.00
2019-05-25T16:12:20.551Z,24.70
2019-05-25T16:15:01.286Z,24.70
2019-05-25T16:17:42.236Z,24.80
2019-05-25T16:20:23.502Z,24.60
2019-05-25T16:23:05.175Z,24.30
2019-05-25T16:25:46.170Z,24.10
2019-05-25T16:28:26.568Z,24.00
2019-05-25T16:31:06.894Z,24.20
2019-05-25T16:33:47.507Z,24.50
2019-05-25T16:36:27.940Z,24.60
2019-05-25T16:39:08.646Z,24.60
2019-05-25T16:41:49.091Z,24.70
2019-05-25T16:44:30.052Z,24.70
2019-05-25T16:47:10.394Z,24.60
2019-05-25T16:49:51.681Z,24.50
2019-05-25T16:52:32.239Z,24.50
2019-05-25T16:55:13.015Z,24.40
2019-05-25T16:57:53.855Z,24.30
2019-05-25T17:00:34.235Z,24.10
2019-05-25T17:03:27.421Z,24.00
2019-05-25T17:05:57.271Z,23.80
2019-05-25T17:08:37.587Z,23.60
2019-05-25T17:11:18.043Z,23.50
2019-05-25T17:13:58.980Z,23.40
2019-05-25T17:16:39.393Z,23.30
2019-05-25T17:19:19.820Z,23.20
2019-05-25T17:22:00.484Z,23.10
2019-05-25T17:24:41.178Z,23.00
2019-05-25T17:27:21.463Z,23.00
2019-05-25T17:30:02.175Z,22.90
2019-05-25T17:32:42.791Z,22.80
2019-05-25T17:35:23.416Z,22.70
2019-05-25T17:38:04.048Z,22.60
2019-05-25T17:43:30.787Z,22.50
2019-05-25T17:46:11.539Z,22.40
2019-05-25T17:48:52.986Z,22.30
2019-05-25T18:14:28.647Z,21.70
2019-05-25T18:17:08.851Z,21.70
2019-05-25T18:19:49.523Z,21.70
2019-05-25T18:22:29.851Z,21.70
2019-05-25T18:25:10.496Z,21.60
2019-05-25T18:27:51.207Z,21.50
2019-05-25T18:30:31.660Z,21.40
2019-05-25T18:33:12.724Z,21.40
2019-05-25T18:35:54.139Z,21.40
2019-05-25T18:38:34.882Z,21.30
2019-05-25T18:41:15.791Z,21.20
2019-05-25T18:43:57.369Z,21.20
2019-05-25T18:46:38.200Z,21.20
2019-05-25T18:49:18.899Z,21.20
2019-05-25T18:51:59.871Z,21.10
2019-05-25T18:54:40.228Z,21.00
2019-05-25T18:57:20.998Z,21.00
2019-05-25T19:00:01.695Z,20.90
2019-05-25T19:05:28.836Z,20.80
2019-05-25T19:08:09.344Z,20.70
2019-05-25T19:10:49.755Z,20.70
2019-05-25T19:16:19.475Z,20.60
2019-05-25T19:18:59.957Z,20.60
2019-05-25T19:24:31.331Z,20.50
2019-05-25T19:30:01.723Z,20.40
2019-05-25T19:35:28.287Z,20.30
2019-05-25T19:40:55.268Z,20.20
2019-05-25T19:46:05.687Z,20.20
2019-05-25T19:48:35.098Z,20.10
2019-05-25T19:51:04.287Z,20.00
2019-05-25T19:53:33.151Z,20.00
2019-05-25T19:56:02.464Z,20.00
2019-05-25T19:58:31.026Z,19.90
2019-05-25T20:00:59.618Z,20.00
2019-05-25T20:03:28.867Z,19.90
2019-05-25T20:05:57.646Z,19.90
2019-05-25T20:08:33.282Z,19.90
2019-05-25T20:11:02.291Z,19.90
2019-05-25T20:13:33.328Z,19.90
2019-05-25T20:16:02.127Z,19.80
2019-05-25T20:18:30.943Z,19.70
2019-05-25T20:20:59.804Z,19.70
2019-05-25T20:23:28.887Z,19.60
2019-05-25T20:25:58.164Z,19.60
2019-05-25T20:28:27.283Z,19.60
2019-05-25T20:30:55.830Z,19.60
2019-05-25T20:33:28.069Z,19.50
2019-05-25T20:35:55.474Z,19.50
2019-05-25T20:38:24.595Z,19.40
2019-05-25T20:40:53.150Z,19.40
2019-05-25T20:43:22.007Z,19.40
2019-05-25T20:45:51.164Z,19.40
2019-05-25T20:48:19.681Z,19.30
2019-05-25T20:50:48.538Z,19.20
2019-05-25T20:53:17.410Z,19.20
2019-05-25T20:55:46.244Z,19.10
2019-05-25T20:58:15.313Z,19.10
2019-05-25T21:00:43.850Z,18.90
2019-05-25T21:03:12.833Z,18.80
2019-05-25T21:05:50.206Z,18.70
2019-05-25T21:08:12.148Z,18.70
2019-05-25T21:10:40.747Z,18.70
2019-05-25T21:13:09.660Z,18.60
2019-05-25T21:15:38.219Z,18.60
2019-05-25T21:18:07.674Z,18.60
2019-05-25T21:20:36.864Z,18.60
2019-05-25T21:23:05.408Z,18.60
2019-05-25T21:25:34.339Z,18.50
2019-05-25T21:28:03.635Z,18.50
2019-05-25T21:30:32.182Z,18.50
2019-05-25T21:33:01.403Z,18.40
2019-05-25T21:35:29.967Z,18.50
2019-05-25T21:37:58.887Z,18.40
2019-05-25T21:40:28.161Z,18.40
2019-05-25T21:42:57.405Z,18.30
2019-05-25T21:45:25.910Z,18.30
2019-05-25T21:47:56.254Z,18.30
2019-05-25T21:50:25.638Z,18.20
2019-05-25T21:52:54.255Z,18.20
2019-05-25T21:55:23.092Z,18.20
2019-05-25T21:57:51.627Z,18.10
2019-05-25T22:00:24.875Z,18.00
2019-05-25T22:02:53.402Z,17.90
2019-05-25T22:05:21.902Z,17.80
2019-05-25T22:07:50.422Z,17.70
2019-05-25T22:10:18.931Z,17.60
2019-05-25T22:12:47.459Z,17.50
2019-05-25T22:15:16.051Z,17.40
2019-05-25T22:17:44.572Z,17.40
2019-05-25T22:20:13.075Z,17.30
2019-05-25T22:22:42.179Z,17.30
2019-05-25T22:25:11.013Z,17.30
2019-05-25T22:27:39.548Z,17.20
2019-05-25T22:30:08.222Z,17.30
2019-05-25T22:32:36.880Z,17.20
2019-05-25T22:35:05.487Z,17.20
2019-05-25T22:37:34.345Z,17.20
2019-05-25T22:40:03.129Z,17.10
2019-05-25T22:42:31.647Z,17.10
2019-05-25T22:45:00.166Z,17.00
2019-05-25T22:47:29.019Z,17.00
2019-05-25T22:49:57.846Z,16.90
2019-05-25T22:52:26.367Z,16.90
2019-05-25T22:54:55.556Z,16.80
2019-05-25T22:57:24.310Z,16.80
2019-05-25T22:59:52.920Z,16.70
2019-05-25T23:02:21.679Z,16.60
2019-05-25T23:04:50.882Z,16.50
2019-05-25T23:07:20.013Z,16.50
2019-05-25T23:09:48.620Z,16.40
2019-05-25T23:12:17.127Z,16.30
2019-05-25T23:14:45.731Z,16.20
2019-05-25T23:17:14.922Z,16.20
2019-05-25T23:19:43.758Z,16.20
2019-05-25T23:22:12.255Z,16.20
2019-05-25T23:24:41.537Z,16.20
2019-05-25T23:27:10.720Z,16.10
2019-05-25T23:29:39.270Z,16.10
2019-05-25T23:32:07.848Z,16.10
2019-05-25T23:34:36.703Z,16.00
2019-05-25T23:37:14.387Z,15.90
2019-05-25T23:39:35.453Z,15.80
2019-05-25T23:42:04.283Z,15.70
2019-05-25T23:44:32.822Z,15.70
2019-05-25T23:47:01.326Z,15.60
2019-05-25T23:49:30.148Z,15.60
2019-05-25T23:51:58.687Z,15.50
2019-05-25T23:54:27.219Z,15.50
2019-05-25T23:56:55.732Z,15.50
2019-05-25T23:59:25.083Z,15.50
